Latest Weather Observations for Beerburrum

IDQ60801

Issued at 6:02 pm EST Friday 24 February 2017 (issued every 30 minutes, with the page automatically refreshed every 10 minutes)

About weather observations | Map of weather stations | Latest weather observations for QLD | Other Formats
Station Details ID: 040284 Name: BEERBURRUM FOREST STATION Lat: -26.96 Lon: 152.96 Height: 48.0 m
Data from the previous 72 hours. | See also: Recent months at Beerburrum
Date/Time
EST
Temp
°C
App
Temp
°C
Dew
Point
°C
Rel
Hum
%
Delta-T
°C
Wind Press
QNH
hPa
Press
MSL
hPa
Rain since
9am
mm
Dir  Spd
km/h
Gust
km/h
Spd
kts
Gust
kts
24/06:00pm 25.7 27.0 17.1 59 5.4 E 6 11 3 6 - - 0.0
24/05:30pm 27.2 28.5 17.1 54 6.3 ESE 6 13 3 7 - - 0.0
24/05:00pm 28.0 28.9 16.6 50 7.1 E 7 17 4 9 - - 0.0
24/04:30pm 28.6 29.2 16.8 48 7.4 SE 9 15 5 8 - - 0.0
24/04:00pm 28.8 29.1 16.0 45 7.9 E 9 13 5 7 - - 0.0
24/03:30pm 29.1 29.6 16.6 46 7.8 E 9 15 5 8 - - 0.0
24/03:00pm 29.5 30.2 17.0 47 7.9 SE 9 20 5 11 - - 0.0
24/02:30pm 29.9 30.9 17.7 48 7.8 SE 9 19 5 10 - - 0.0
24/02:00pm 29.2 29.7 17.4 49 7.5 SE 11 19 6 10 - - 0.0
24/01:30pm 29.7 30.6 17.5 48 7.7 ESE 9 20 5 11 - - 0.0
24/01:00pm 29.1 29.5 17.3 49 7.5 SSE 11 19 6 10 - - 0.0
24/12:30pm 29.4 30.3 17.6 49 7.5 SSE 9 17 5 9 - - 0.0
24/12:00pm 28.8 29.8 17.7 51 7.0 SE 9 20 5 11 - - 0.0
24/11:30am 28.7 29.2 16.6 48 7.6 S 9 17 5 9 - - 0.0
24/11:00am 28.0 28.6 16.9 51 6.9 ESE 9 20 5 11 - - 0.0
24/10:30am 27.9 29.0 17.1 51 6.8 SE 7 13 4 7 - - 0.0
24/10:00am 27.0 27.3 16.9 54 6.3 SE 11 19 6 10 - - 0.0
24/09:30am 27.4 27.8 16.4 51 6.8 S 9 20 5 11 - - 0.0
24/09:00am 25.6 25.9 15.9 55 5.9 S 9 17 5 9 - - 0.0
24/08:30am 25.3 25.9 16.7 59 5.3 SSE 9 17 5 9 - - 0.0
24/08:00am 24.5 25.8 17.0 63 4.6 SSW 6 11 3 6 - - 0.0
24/07:30am 23.0 24.3 17.0 69 3.7 SSW 6 11 3 6 - - 0.0
24/07:00am 21.9 24.6 18.7 82 2.0 W 2 7 1 4 - - 0.0
24/06:30am 20.2 23.1 18.3 89 1.2 CALM 0 0 0 0 - - 0.0
24/06:00am 18.7 21.1 17.0 90 1.0 CALM 0 0 0 0 - - 0.0
24/05:30am 18.9 21.3 16.9 88 1.2 CALM 0 0 0 0 - - 0.0
24/05:00am 19.2 21.7 17.2 88 1.2 CALM 0 0 0 0 - - 0.0
24/04:30am 19.3 21.7 17.1 87 1.3 CALM 0 0 0 0 - - 0.0
24/04:00am 19.8 22.4 17.6 87 1.4 CALM 0 0 0 0 - - 0.0
24/03:30am 20.0 22.9 18.1 89 1.2 CALM 0 0 0 0 - - 0.0
24/03:00am 19.6 22.4 17.9 90 1.0 CALM 0 0 0 0 - - 0.0
24/02:30am 19.2 21.7 17.3 89 1.2 CALM 0 0 0 0 - - 0.0
24/02:00am 19.2 21.7 17.3 89 1.2 CALM 0 0 0 0 - - 0.0
24/01:30am 19.3 21.4 17.3 88 1.2 SW 2 6 1 3 - - 0.0
24/01:00am 19.4 21.0 17.0 86 1.5 SW 4 7 2 4 - - 0.0
24/12:30am 19.8 22.3 17.2 85 1.6 CALM 0 0 0 0 - - 0.0
24/12:00am 20.2 22.8 17.4 84 1.7 CALM 0 0 0 0 - - 0.0
 
Date/Time
EST
Temp
°C
App
Temp
°C
Dew
Point
°C
Rel
Hum
%
Delta-T
°C
Wind Press
QNH
hPa
Press
MSL
hPa
Rain since
9am
mm
Dir  Spd
km/h
Gust
km/h
Spd
kts
Gust
kts
23/11:30pm 20.7 23.4 17.7 83 1.9 CALM 0 0 0 0 - - 0.0
23/11:00pm 21.2 23.9 17.8 81 2.1 CALM 0 0 0 0 - - 0.0
23/10:30pm 21.4 24.2 18.0 81 2.1 CALM 0 0 0 0 - - 0.0
23/10:00pm 21.4 24.2 18.0 81 2.1 CALM 0 0 0 0 - - 0.0
23/09:30pm 22.1 24.9 17.9 77 2.6 CALM 0 0 0 0 - - 0.0
23/09:00pm 22.7 25.5 18.0 75 2.9 CALM 0 0 0 0 - - 0.0
23/08:30pm 23.0 25.9 18.3 75 3.0 CALM 0 0 0 0 - - 0.0
23/08:00pm 23.0 26.1 18.7 77 2.7 CALM 0 0 0 0 - - 0.0
23/07:30pm 23.0 25.7 17.7 72 3.3 CALM 0 0 0 0 - - 0.0
23/07:00pm 24.4 26.7 17.6 66 4.2 SSE 2 7 1 4 - - 0.0
23/06:30pm 25.1 27.2 18.1 65 4.4 S 4 7 2 4 - - 0.0
23/06:00pm 25.6 27.1 17.5 61 5.1 S 6 13 3 7 - - 0.0
23/05:30pm 26.2 27.1 17.6 59 5.4 SSE 9 15 5 8 - - 0.0
23/05:00pm 27.0 28.3 17.5 56 6.0 SE 7 11 4 6 - - 0.0
23/04:30pm 27.8 28.6 17.3 52 6.6 ESE 9 17 5 9 - - 0.0
23/04:00pm 27.9 28.4 16.5 50 7.1 SSE 9 15 5 8 - - 0.0
23/03:30pm 28.7 29.2 16.6 48 7.6 SE 9 15 5 8 - - 0.0
23/03:00pm 28.4 28.2 16.7 49 7.3 SSE 13 22 7 12 - - 0.0
23/02:30pm 29.5 30.2 17.0 47 7.9 ESE 9 13 5 7 - - 0.0
23/02:00pm 28.0 27.6 15.3 46 7.8 SSE 11 17 6 9 - - 0.0
23/01:30pm 28.2 28.3 15.5 46 7.8 SSE 9 17 5 9 - - 0.0
23/01:00pm 28.8 29.1 16.0 45 7.9 SE 9 20 5 11 - - 0.0
23/12:30pm 28.4 28.6 15.7 46 7.8 SSE 9 19 5 10 - - 0.0
23/12:00pm 28.1 27.8 15.4 46 7.8 ESE 11 20 6 11 - - 0.0
23/11:30am 28.4 29.2 17.3 51 7.0 SSE 9 20 5 11 - - 0.0
23/11:00am 27.5 27.6 15.5 48 7.3 SSE 9 19 5 10 - - 0.0
23/10:30am 26.7 26.8 15.4 50 6.9 SE 9 19 5 10 - - 0.0
23/10:00am 26.6 26.6 15.3 50 6.9 S 9 22 5 12 - - 0.0
23/09:30am 25.8 26.6 16.4 56 5.8 S 7 13 4 7 - - 0.0
23/09:00am 25.3 24.9 15.3 54 6.0 S 11 17 6 9 - - 0.0
23/08:30am 24.4 24.9 15.6 58 5.3 S 7 20 4 11 - - 0.0
23/08:00am 23.8 24.9 17.1 66 4.1 SSW 7 15 4 8 - - 0.0
23/07:30am 22.4 24.7 17.8 75 2.9 SW 2 7 1 4 - - 0.0
23/07:00am 20.1 22.2 17.3 84 1.7 SW 2 6 1 3 - - 0.0
23/06:30am 19.3 20.8 16.7 85 1.6 SW 4 6 2 3 - - 0.0
23/06:00am 18.7 20.7 16.1 85 1.5 CALM 0 0 0 0 - - 0.0
23/05:30am 19.1 21.1 16.1 83 1.8 CALM 0 0 0 0 - - 0.0
23/05:00am 19.7 21.9 16.5 82 1.9 CALM 0 0 0 0 - - 0.0
23/04:30am 20.1 22.4 16.7 81 2.1 CALM 0 0 0 0 - - 0.0
23/04:00am 20.1 22.4 16.7 81 2.1 CALM 0 0 0 0 - - 0.0
23/03:30am 20.2 22.6 17.0 82 1.9 CALM 0 4 0 2 - - 0.0
23/03:00am 20.1 22.5 16.9 82 1.9 CALM 0 6 0 3 - - 0.0
23/02:30am 19.9 22.2 16.7 82 1.9 CALM 0 0 0 0 - - 0.0
23/02:00am 20.1 22.5 16.9 82 1.9 CALM 0 0 0 0 - - 0.0
23/01:30am 19.6 21.0 16.3 81 2.0 SW 4 6 2 3 - - 0.0
23/01:00am 19.8 21.8 16.1 79 2.2 CALM 0 0 0 0 - - 0.0
23/12:30am 20.5 22.5 15.9 75 2.8 CALM 0 0 0 0 - - 0.0
23/12:00am 21.1 23.3 16.5 75 2.8 CALM 0 0 0 0 - - 0.0
 
Date/Time
EST
Temp
°C
App
Temp
°C
Dew
Point
°C
Rel
Hum
%
Delta-T
°C
Wind Press
QNH
hPa
Press
MSL
hPa
Rain since
9am
mm
Dir  Spd
km/h
Gust
km/h
Spd
kts
Gust
kts
22/11:30pm 20.9 22.9 16.1 74 2.9 CALM 0 0 0 0 - - 0.0
22/11:00pm 21.3 22.7 15.4 69 3.5 WSW 2 6 1 3 - - 0.0
22/10:30pm 22.7 23.8 15.5 64 4.3 S 4 9 2 5 - - 0.0
22/10:00pm 23.1 23.9 16.4 66 4.1 S 7 13 4 7 - - 0.0
22/09:30pm 22.8 23.6 15.9 65 4.2 SSW 6 9 3 5 - - 0.0
22/09:00pm 23.1 23.5 15.2 61 4.7 S 7 15 4 8 - - 0.0
22/08:30pm 24.0 24.5 15.5 59 5.1 S 7 17 4 9 - - 0.0
22/08:00pm 24.3 25.0 16.0 60 5.1 S 7 13 4 7 - - 0.0
22/07:30pm 24.5 25.4 16.7 61 4.8 SSE 7 17 4 9 - - 0.0
22/07:00pm 24.6 25.7 16.6 61 4.9 SSE 6 13 3 7 - - 0.0
22/06:30pm 24.8 25.9 16.5 60 5.1 ESE 6 15 3 8 - - 0.0
22/06:00pm 24.9 26.0 16.6 60 5.1 ESE 6 13 3 7 - - 0.0
22/05:30pm 25.3 26.1 16.4 57 5.5 SE 7 13 4 7 - - 0.0
22/05:00pm 25.6 26.0 16.2 56 5.8 S 9 19 5 10 - - 0.0
22/04:30pm 25.9 26.4 16.5 56 5.8 SE 9 19 5 10 - - 0.0
22/04:00pm 26.2 26.0 15.6 52 6.5 SE 11 24 6 13 - - 0.0
22/03:30pm 27.1 27.4 16.1 51 6.8 SSE 9 24 5 13 - - 0.0
22/03:00pm 26.4 27.3 16.6 55 6.1 S 7 17 4 9 - - 0.0
22/02:30pm 26.7 26.8 16.6 54 6.3 SSE 11 24 6 13 - - 0.0
22/02:00pm 27.0 26.9 16.0 51 6.8 S 11 22 6 12 - - 0.0
22/01:30pm 27.2 26.8 16.2 51 6.8 SSE 13 26 7 14 - - 0.0
22/01:00pm 27.7 28.1 16.3 49 7.1 SSE 9 24 5 13 - - 0.0
22/12:30pm 27.5 27.1 16.1 49 7.0 SE 13 24 7 13 - - 0.0
22/12:00pm 27.1 27.7 16.7 53 6.5 SE 9 19 5 10 - - 0.0
22/11:30am 26.9 28.0 17.9 57 5.7 SSE 9 22 5 12 - - 0.0
22/11:00am 26.9 27.0 17.4 56 6.0 SSE 13 22 7 12 - - 0.0
22/10:30am 26.6 27.9 18.5 61 5.2 SSE 9 20 5 11 - - 0.0
22/10:00am 27.1 28.5 18.7 60 5.4 S 9 15 5 8 - - 0.0
22/09:30am 25.5 26.7 18.2 64 4.6 S 9 20 5 11 - - 0.0
22/09:00am 26.5 28.4 18.9 63 4.9 S 7 15 4 8 - - 0.0
22/08:30am 25.4 27.1 18.6 66 4.3 S 7 15 4 8 - - 0.0
22/08:00am 25.0 26.4 17.7 64 4.6 S 7 17 4 9 - - 0.0
22/07:30am 23.6 25.1 18.0 71 3.5 SW 7 13 4 7 - - 0.0
22/07:00am 22.3 24.7 18.7 80 2.3 SSW 4 6 2 3 - - 0.0
22/06:30am 21.5 24.6 18.7 84 1.8 CALM 0 0 0 0 - - 0.0
22/06:00am 21.2 24.2 18.4 84 1.8 CALM 0 6 0 3 - - 0.0
22/05:30am 20.8 23.7 18.2 85 1.6 CALM 0 0 0 0 - - 0.0
22/05:00am 20.9 23.8 18.3 85 1.6 CALM 0 4 0 2 - - 0.0
22/04:30am 20.9 23.8 18.3 85 1.6 CALM 0 0 0 0 - - 0.0
22/04:00am 20.8 23.6 18.0 84 1.7 CALM 0 0 0 0 - - 0.0
22/03:30am 21.1 23.9 17.9 82 2.0 CALM 0 0 0 0 - - 0.0
22/03:00am 21.5 24.0 18.1 81 2.1 S 2 9 1 5 - - 0.0
22/02:30am 21.2 23.8 17.6 80 2.2 CALM 0 0 0 0 - - 0.0
22/02:00am 21.3 24.0 17.7 80 2.2 CALM 0 0 0 0 - - 0.0
22/01:30am 21.5 24.2 17.7 79 2.4 CALM 0 0 0 0 - - 0.0
22/01:00am 21.9 24.4 17.3 75 2.8 CALM 0 6 0 3 - - 0.0
22/12:30am 22.3 24.9 17.4 74 3.0 CALM 0 0 0 0 - - 0.0
22/12:00am 22.8 24.6 17.5 72 3.3 SSW 4 7 2 4 - - 0.0
 
Date/Time
EST
Temp
°C
App
Temp
°C
Dew
Point
°C
Rel
Hum
%
Delta-T
°C
Wind Press
QNH
hPa
Press
MSL
hPa
Rain since
9am
mm
Dir  Spd
km/h
Gust
km/h
Spd
kts
Gust
kts
21/11:30pm 23.5 25.8 17.7 70 3.6 SSE 2 9 1 5 - - 0.0
21/11:00pm 23.5 25.3 17.5 69 3.7 SSE 4 13 2 7 - - 0.0
21/10:30pm 23.2 25.0 17.4 70 3.6 S 4 7 2 4 - - 0.0
21/10:00pm 23.3 25.4 17.3 69 3.7 S 2 7 1 4 - - 0.0
21/09:30pm 23.4 25.7 17.8 71 3.5 E 2 7 1 4 - - 0.0
21/09:00pm 23.5 26.0 18.2 72 3.3 SE 2 6 1 3 - - 0.0
21/08:30pm 23.2 26.0 17.9 72 3.3 CALM 0 0 0 0 - - 0.0
21/08:00pm 23.7 26.2 17.2 67 4.0 CALM 0 6 0 3 - - 0.0
21/07:30pm 24.2 26.1 16.7 63 4.6 ESE 2 11 1 6 - - 0.0
21/07:00pm 25.0 26.5 17.5 63 4.7 SE 6 13 3 7 - - 0.0
21/06:30pm 25.6 27.1 18.0 63 4.8 SE 7 11 4 6 - - 0.0

Other Formats:

Comma delimited format used in spreadsheet applications
http://www.bom.gov.au/fwo/IDQ60801/IDQ60801.95566.axf

JavaScript Object Notation format (JSON) in row-major order
http://www.bom.gov.au/fwo/IDQ60801/IDQ60801.95566.json